createdAt,value
2023-02-14T06:45:17.830Z,101914.56
2023-02-14T06:48:03.920Z,101914.56
2023-02-14T06:50:48.979Z,101918.13
2023-02-14T06:53:34.444Z,101917.03
2023-02-14T06:56:20.043Z,101916.81
2023-02-14T06:59:06.444Z,101918.41
2023-02-14T07:01:52.254Z,101920.16
2023-02-14T07:04:37.493Z,101918.94
2023-02-14T07:07:22.869Z,101924.81
2023-02-14T07:10:08.567Z,101918.66
2023-02-14T07:12:53.933Z,101922.97
2023-02-14T07:15:40.261Z,101920.19
2023-02-14T07:18:25.500Z,101911.28
2023-02-14T07:21:11.124Z,101924.41
2023-02-14T07:23:56.386Z,101926.03
2023-02-14T07:26:42.855Z,101920.66
2023-02-14T07:29:28.100Z,101918.13
2023-02-14T07:32:13.686Z,101925.72
2023-02-14T07:34:59.364Z,101925.66
2023-02-14T07:37:44.746Z,101934.41
2023-02-14T07:40:38.391Z,101924.66
2023-02-14T07:43:26.214Z,101923.84
2023-02-14T07:46:13.200Z,101913.72
2023-02-14T07:48:59.382Z,101928.34
2023-02-14T07:51:45.103Z,101933.53
2023-02-14T07:54:31.285Z,101919.75
2023-02-14T07:57:19.312Z,101916.22
2023-02-14T08:00:06.672Z,101927.28
2023-02-14T08:02:58.440Z,101920.97
2023-02-14T08:05:47.207Z,101924.16
2023-02-14T08:08:46.080Z,101924.78
2023-02-14T08:11:50.174Z,101913.59
2023-02-14T08:14:38.237Z,101911.78
2023-02-14T08:17:23.676Z,101927.00
2023-02-14T08:20:09.151Z,101916.19
2023-02-14T08:22:58.996Z,101910.50
2023-02-14T08:25:51.911Z,101936.28
2023-02-14T08:28:37.995Z,101935.28
2023-02-14T08:31:35.000Z,101943.72
2023-02-14T08:34:21.769Z,101950.06
2023-02-14T08:37:08.305Z,101935.25
2023-02-14T08:39:58.451Z,101940.56
2023-02-14T08:42:43.779Z,101947.34
2023-02-14T08:45:29.749Z,101949.63
2023-02-14T08:48:19.001Z,101949.50
2023-02-14T08:51:06.878Z,101945.41
2023-02-14T08:53:56.057Z,101946.78
2023-02-14T08:56:43.753Z,101949.22
2023-02-14T08:59:29.145Z,101943.31
2023-02-14T09:02:16.925Z,101944.00
2023-02-14T09:05:02.772Z,101954.81
2023-02-14T09:07:49.843Z,101948.59
2023-02-14T09:10:41.204Z,101948.06
2023-02-14T09:13:32.826Z,101943.31
2023-02-14T09:16:20.480Z,101944.91
2023-02-14T09:19:08.086Z,101948.94
2023-02-14T09:21:53.447Z,101936.94
2023-02-14T09:24:41.513Z,101960.75
2023-02-14T09:27:27.389Z,101954.19
2023-02-14T09:30:14.691Z,101959.88
2023-02-14T09:33:04.796Z,101954.69
2023-02-14T09:36:08.646Z,101949.28
2023-02-14T09:38:54.252Z,101959.19
2023-02-14T09:42:05.140Z,101953.53
2023-02-14T09:44:58.840Z,101958.13
2023-02-14T09:47:54.274Z,101952.94
2023-02-14T09:50:54.254Z,101953.38
2023-02-14T09:53:47.581Z,101945.41
2023-02-14T09:57:11.419Z,101947.66
2023-02-14T10:00:20.484Z,101937.41
2023-02-14T10:03:32.820Z,101947.44
2023-02-14T10:06:50.907Z,101951.25
2023-02-14T10:09:46.413Z,101943.09
2023-02-14T10:12:39.409Z,101942.03
2023-02-14T10:15:35.613Z,101945.47
2023-02-14T10:18:24.441Z,101951.50
2023-02-14T10:21:15.831Z,101948.25
2023-02-14T10:24:18.709Z,101945.53
2023-02-14T10:27:36.828Z,101933.38
2023-02-14T10:30:23.706Z,101946.44
2023-02-14T10:33:23.646Z,101949.66
2023-02-14T10:36:38.107Z,101940.56
2023-02-14T10:39:31.657Z,101955.59
2023-02-14T10:42:35.860Z,101948.47
2023-02-14T10:45:46.098Z,101950.59
2023-02-14T10:48:42.911Z,101948.94
2023-02-14T10:51:52.857Z,101952.88
2023-02-14T10:54:42.422Z,101944.47
2023-02-14T10:57:44.804Z,101946.03
2023-02-14T11:00:38.138Z,101947.00
2023-02-14T11:03:24.371Z,101943.75
2023-02-14T11:06:10.549Z,101934.69
2023-02-14T11:08:57.446Z,101936.13
2023-02-14T11:11:59.218Z,101936.06
2023-02-14T11:14:45.132Z,101926.19
2023-02-14T11:17:32.721Z,101929.38
2023-02-14T11:20:28.061Z,101923.09
2023-02-14T11:23:21.071Z,101925.84
2023-02-14T11:26:15.524Z,101913.28
2023-02-14T11:29:07.593Z,101910.22
2023-02-14T11:31:53.721Z,101922.00
2023-02-14T11:34:45.626Z,101916.91
2023-02-14T11:37:34.272Z,101915.22
2023-02-14T11:40:35.054Z,101910.72
2023-02-14T11:43:32.048Z,101913.00
2023-02-14T11:46:20.349Z,101905.22
2023-02-14T11:49:09.836Z,101903.28
2023-02-14T11:51:57.936Z,101899.66
2023-02-14T11:54:45.060Z,101895.19
2023-02-14T11:57:39.052Z,101899.62
2023-02-14T12:00:27.920Z,101892.53
2023-02-14T12:03:17.805Z,101879.81
2023-02-14T12:06:03.834Z,101905.13
2023-02-14T12:08:49.106Z,101896.62
2023-02-14T12:11:34.618Z,101895.06
2023-02-14T12:14:24.406Z,101894.13
2023-02-14T12:17:35.713Z,101898.84
2023-02-14T12:20:48.269Z,101895.31
2023-02-14T12:23:37.247Z,101898.72
2023-02-14T12:26:30.155Z,101889.09
2023-02-14T12:29:36.910Z,101884.87
2023-02-14T12:32:22.504Z,101879.12
2023-02-14T12:35:42.317Z,101884.44
2023-02-14T12:39:01.866Z,101885.88
2023-02-14T12:42:02.526Z,101878.94
2023-02-14T12:45:03.617Z,101876.94
2023-02-14T12:48:22.865Z,101872.91
2023-02-14T12:51:43.978Z,101864.25
2023-02-14T12:54:57.637Z,101860.63
2023-02-14T12:57:51.485Z,101879.44
2023-02-14T13:01:05.013Z,101868.94
2023-02-14T13:04:01.218Z,101865.25
2023-02-14T13:07:24.962Z,101866.16
2023-02-14T13:10:23.454Z,101871.13
2023-02-14T13:13:30.426Z,101862.44
2023-02-14T13:16:27.796Z,101859.63
2023-02-14T13:19:15.927Z,101846.75
2023-02-14T13:22:01.956Z,101857.97
2023-02-14T13:24:48.999Z,101847.16
2023-02-14T13:27:37.959Z,101862.22
2023-02-14T13:30:32.134Z,101861.13
2023-02-14T13:33:28.299Z,101849.50
2023-02-14T13:36:14.016Z,101857.53
2023-02-14T13:39:00.398Z,101854.19
2023-02-14T13:41:46.042Z,101843.25
2023-02-14T13:44:49.194Z,101849.50
2023-02-14T13:47:34.550Z,101834.94
2023-02-14T13:50:22.471Z,101848.50
2023-02-14T13:53:12.694Z,101843.97
2023-02-14T13:55:58.281Z,101843.81
2023-02-14T13:58:53.555Z,101825.78
2023-02-14T14:01:51.115Z,101843.31
2023-02-14T14:04:37.748Z,101842.38
2023-02-14T14:07:27.191Z,101838.78
2023-02-14T14:10:13.393Z,101836.41
2023-02-14T14:12:59.000Z,101819.81
2023-02-14T14:16:23.085Z,101832.31
2023-02-14T14:19:21.274Z,101830.56
2023-02-14T14:22:14.319Z,101834.75
2023-02-14T14:25:01.597Z,101821.66
2023-02-14T14:27:47.126Z,101821.97
2023-02-14T14:30:33.723Z,101837.28
2023-02-14T14:33:32.628Z,101838.13
2023-02-14T14:36:23.387Z,101840.91
2023-02-14T14:39:10.175Z,101837.63
2023-02-14T14:41:56.592Z,101826.34
2023-02-14T14:44:48.190Z,101842.12
2023-02-14T14:47:44.931Z,101826.63
2023-02-14T14:50:33.434Z,101832.59
2023-02-14T14:53:30.329Z,101837.28
2023-02-14T14:56:33.764Z,101833.47
2023-02-14T14:59:37.330Z,101839.12
2023-02-14T15:02:30.028Z,101829.84
2023-02-14T15:05:28.966Z,101844.81
2023-02-14T15:08:32.697Z,101846.38
2023-02-14T15:11:49.525Z,101839.78
2023-02-14T15:14:37.464Z,101837.22
2023-02-14T15:17:27.591Z,101840.88
2023-02-14T15:20:19.585Z,101833.75
2023-02-14T15:23:05.159Z,101846.31
2023-02-14T15:25:50.974Z,101836.13
2023-02-14T15:28:38.608Z,101838.03
2023-02-14T15:31:26.741Z,101832.50
2023-02-14T15:34:12.785Z,101845.72
2023-02-14T15:37:03.743Z,101847.69
2023-02-14T15:39:52.598Z,101843.41
2023-02-14T15:42:41.348Z,101856.09
2023-02-14T15:45:27.861Z,101850.13
2023-02-14T15:48:17.269Z,101856.09
2023-02-14T15:51:05.016Z,101853.78
2023-02-14T15:54:03.235Z,101853.09
2023-02-14T15:56:51.104Z,101856.78
2023-02-14T15:59:41.633Z,101854.25
2023-02-14T16:02:37.967Z,101856.91
2023-02-14T16:05:25.129Z,101859.63
2023-02-14T16:08:33.660Z,101857.91
2023-02-14T16:11:35.605Z,101864.00
2023-02-14T16:14:32.357Z,101869.28
2023-02-14T16:17:32.365Z,101870.19
2023-02-14T16:20:36.354Z,101865.94
2023-02-14T16:23:24.404Z,101877.47
2023-02-14T16:26:09.758Z,101869.12
2023-02-14T16:28:55.163Z,101875.88
2023-02-14T16:32:01.208Z,101877.84
2023-02-14T16:34:51.377Z,101876.12
2023-02-14T16:37:38.421Z,101873.69
2023-02-14T16:40:26.445Z,101883.88
2023-02-14T16:43:13.759Z,101890.94
2023-02-14T16:45:59.005Z,101891.88
2023-02-14T16:48:45.743Z,101888.56
2023-02-14T16:51:36.216Z,101878.34
2023-02-14T16:54:25.683Z,101894.00
2023-02-14T16:57:38.353Z,101894.00
2023-02-14T17:00:26.572Z,101892.97
2023-02-14T17:03:12.009Z,101892.16
2023-02-14T17:05:58.524Z,101892.16
2023-02-14T17:08:43.930Z,101894.09
2023-02-14T17:11:31.588Z,101889.78
2023-02-14T17:14:20.437Z,101890.81
2023-02-14T17:17:06.287Z,101904.63
2023-02-14T17:19:52.980Z,101896.94
2023-02-14T17:22:39.779Z,101895.22
2023-02-14T17:25:25.727Z,101901.28
2023-02-14T17:28:11.244Z,101889.09
2023-02-14T17:30:58.307Z,101888.41
2023-02-14T17:33:45.477Z,101896.12
2023-02-14T17:36:32.321Z,101897.84
2023-02-14T17:39:18.759Z,101899.69
2023-02-14T17:42:04.401Z,101894.53
2023-02-14T17:44:49.648Z,101892.88
2023-02-14T17:47:35.083Z,101900.00
2023-02-14T17:50:20.896Z,101902.53
2023-02-14T17:53:05.965Z,101890.59
2023-02-14T17:55:52.344Z,101905.41
2023-02-14T17:58:38.307Z,101905.44
2023-02-14T18:01:26.052Z,101886.66
2023-02-14T18:04:11.609Z,101902.34
2023-02-14T18:06:57.195Z,101906.03
2023-02-14T18:09:42.909Z,101894.81
2023-02-14T18:12:27.920Z,101898.44
2023-02-14T18:15:13.438Z,101894.44
2023-02-14T18:17:58.405Z,101894.75
2023-02-14T18:20:52.263Z,101902.78
2023-02-14T18:23:37.844Z,101900.59
2023-02-14T18:26:23.001Z,101904.66
2023-02-14T18:29:08.999Z,101911.28
2023-02-14T18:31:54.688Z,101904.66
2023-02-14T18:34:40.048Z,101900.41
2023-02-14T18:37:25.587Z,101901.44
2023-02-14T18:40:12.067Z,101893.09
2023-02-14T18:42:57.550Z,101898.59
2023-02-14T18:45:43.126Z,101897.94
2023-02-14T18:48:28.362Z,101901.66
2023-02-14T18:51:16.374Z,101906.47
2023-02-14T18:54:04.623Z,101904.53
2023-02-14T18:56:49.973Z,101903.09
2023-02-14T18:59:35.766Z,101905.38
2023-02-14T19:02:21.997Z,101897.19
2023-02-14T19:05:08.134Z,101900.91
2023-02-14T19:07:58.366Z,101886.53
2023-02-14T19:10:45.174Z,101891.00
2023-02-14T19:13:32.708Z,101894.50
2023-02-14T19:16:20.497Z,101892.62
2023-02-14T19:19:05.984Z,101894.16
2023-02-14T19:21:52.003Z,101891.75
2023-02-14T19:24:37.852Z,101894.19
2023-02-14T19:27:23.982Z,101895.84
2023-02-14T19:30:10.761Z,101890.81
2023-02-14T19:32:56.508Z,101885.13
2023-02-14T19:35:41.710Z,101891.69
2023-02-14T19:38:27.341Z,101874.75
2023-02-14T19:41:24.077Z,101892.03
2023-02-14T19:44:13.732Z,101891.31
2023-02-14T19:47:01.893Z,101896.09
2023-02-14T19:49:49.769Z,101881.00
2023-02-14T19:52:35.286Z,101874.31
2023-02-14T19:55:22.613Z,101890.84
2023-02-14T19:58:07.921Z,101887.78
2023-02-14T20:00:59.132Z,101900.16
2023-02-14T20:03:48.697Z,101904.78
2023-02-14T20:06:34.003Z,101890.31
2023-02-14T20:09:21.790Z,101896.66
2023-02-14T20:12:07.475Z,101893.31
2023-02-14T20:14:54.477Z,101899.44
2023-02-14T20:17:39.927Z,101902.94
2023-02-14T20:20:25.052Z,101901.31
2023-02-14T20:23:10.642Z,101898.03
2023-02-14T20:25:56.303Z,101904.06
2023-02-14T20:28:41.616Z,101891.28
2023-02-14T20:31:27.206Z,101891.41
2023-02-14T20:34:13.232Z,101898.25
2023-02-14T20:36:59.284Z,101902.84
2023-02-14T20:39:44.700Z,101906.47
2023-02-14T20:42:29.926Z,101901.44
2023-02-14T20:45:15.494Z,101901.47
2023-02-14T20:48:04.155Z,101901.66
2023-02-14T20:50:49.891Z,101905.22
2023-02-14T20:53:35.322Z,101903.56
2023-02-14T20:56:22.846Z,101910.47
2023-02-14T20:59:09.908Z,101902.78
2023-02-14T21:01:56.438Z,101906.19
2023-02-14T21:04:41.556Z,101906.16
2023-02-14T21:07:30.801Z,101902.81
2023-02-14T21:10:16.072Z,101907.31
2023-02-14T21:13:01.367Z,101910.88
2023-02-14T21:15:46.880Z,101914.28
2023-02-14T21:18:37.635Z,101911.78
2023-02-14T21:21:34.887Z,101906.66
2023-02-14T21:24:20.534Z,101912.75
2023-02-14T21:27:06.266Z,101915.31
2023-02-14T21:29:51.992Z,101911.13
2023-02-14T21:32:37.324Z,101889.69
2023-02-14T21:35:22.571Z,101911.06
2023-02-14T21:38:07.945Z,101915.41
2023-02-14T21:41:01.420Z,101892.34
2023-02-14T21:43:48.633Z,101907.78
2023-02-14T21:46:37.210Z,101909.59
2023-02-14T21:49:41.432Z,101907.03
2023-02-14T21:52:26.705Z,101889.06
2023-02-14T21:55:12.377Z,101907.91
2023-02-14T21:57:57.389Z,101906.22
2023-02-14T22:00:48.077Z,101912.28
2023-02-14T22:03:34.475Z,101916.62
2023-02-14T22:06:20.234Z,101913.19
2023-02-14T22:09:06.101Z,101886.47
2023-02-14T22:11:51.010Z,101910.56
2023-02-14T22:14:36.216Z,101908.00
2023-02-14T22:17:21.514Z,101907.16
2023-02-14T22:20:10.444Z,101902.81
2023-02-14T22:22:55.634Z,101907.16
2023-02-14T22:25:43.053Z,101901.13
2023-02-14T22:28:28.266Z,101902.06
2023-02-14T22:31:14.457Z,101896.91
2023-02-14T22:33:59.902Z,101899.53
2023-02-14T22:36:45.933Z,101902.13
2023-02-14T22:39:31.451Z,101905.63
2023-02-14T22:42:16.644Z,101901.28
2023-02-14T22:45:02.580Z,101903.03
2023-02-14T22:47:47.958Z,101896.16
2023-02-14T22:50:36.074Z,101897.06
2023-02-14T22:53:21.645Z,101873.84
2023-02-14T22:56:12.060Z,101891.00
2023-02-14T22:59:20.426Z,101897.91
2023-02-14T23:02:07.120Z,101896.19
2023-02-14T23:04:52.525Z,101897.09
2023-02-14T23:07:38.321Z,101887.66
2023-02-14T23:10:23.680Z,101894.53
2023-02-14T23:13:28.889Z,101891.09
2023-02-14T23:16:33.242Z,101891.09
2023-02-14T23:19:39.362Z,101890.25
2023-02-14T23:22:33.422Z,101891.09
2023-02-14T23:25:18.317Z,101893.69
2023-02-14T23:28:03.847Z,101891.09
2023-02-14T23:30:48.771Z,101888.53
2023-02-14T23:33:34.182Z,101885.13
2023-02-14T23:36:19.668Z,101892.03
2023-02-14T23:39:05.126Z,101897.22
2023-02-14T23:41:50.281Z,101896.34
2023-02-14T23:44:35.651Z,101876.53
2023-02-14T23:47:21.029Z,101891.16
2023-02-14T23:50:06.946Z,101879.12
2023-02-14T23:52:52.116Z,101885.16
2023-02-14T23:55:37.883Z,101878.25
2023-02-14T23:58:23.340Z,101886.84
